createdAt,value
2019-03-29T00:00:54.030Z,100.00
2019-03-29T00:03:24.920Z,100.00
2019-03-29T00:05:55.886Z,100.00
2019-03-29T00:08:27.003Z,100.00
2019-03-29T00:11:02.434Z,100.00
2019-03-29T00:13:33.575Z,100.00
2019-03-29T00:16:04.530Z,100.00
2019-03-29T00:18:36.120Z,100.00
2019-03-29T00:21:07.271Z,100.00
2019-03-29T00:23:38.288Z,100.00
2019-03-29T00:26:09.148Z,100.00
2019-03-29T00:28:40.216Z,100.00
2019-03-29T00:31:13.952Z,100.00
2019-03-29T00:33:43.772Z,100.00
2019-03-29T00:36:14.706Z,100.00
2019-03-29T00:38:45.686Z,100.00
2019-03-29T00:41:16.608Z,100.00
2019-03-29T00:43:47.629Z,100.00
2019-03-29T00:46:18.565Z,99.75
2019-03-29T00:48:49.645Z,100.00
2019-03-29T00:51:20.646Z,100.00
2019-03-29T00:53:51.499Z,100.00
2019-03-29T00:56:22.509Z,100.00
2019-03-29T00:58:53.567Z,100.00
2019-03-29T01:01:26.029Z,100.00
2019-03-29T01:03:57.153Z,100.00
2019-03-29T01:06:28.420Z,100.00
2019-03-29T01:08:59.281Z,100.00
2019-03-29T01:11:30.525Z,100.00
2019-03-29T01:14:01.512Z,100.00
2019-03-29T01:16:32.537Z,100.00
2019-03-29T01:19:04.025Z,100.00
2019-03-29T01:21:35.068Z,100.00
2019-03-29T01:24:06.285Z,100.00
2019-03-29T01:26:37.183Z,100.00
2019-03-29T01:29:08.151Z,100.00
2019-03-29T01:31:40.975Z,100.00
2019-03-29T01:34:12.169Z,100.00
2019-03-29T01:36:43.219Z,100.00
2019-03-29T01:39:14.151Z,100.00
2019-03-29T01:41:45.077Z,100.00
2019-03-29T01:44:15.964Z,100.00
2019-03-29T01:46:46.949Z,100.00
2019-03-29T01:49:18.117Z,100.00
2019-03-29T01:51:49.132Z,100.00
2019-03-29T01:54:20.181Z,100.00
2019-03-29T01:56:51.181Z,100.00
2019-03-29T01:59:22.140Z,100.00
2019-03-29T02:01:53.309Z,100.00
2019-03-29T02:04:24.306Z,100.00
2019-03-29T02:06:55.388Z,100.00
2019-03-29T02:09:26.307Z,100.00
2019-03-29T02:11:57.362Z,100.00
2019-03-29T02:14:28.264Z,100.00
2019-03-29T02:16:59.224Z,100.00
2019-03-29T02:19:30.286Z,100.00
2019-03-29T02:22:01.341Z,100.00
2019-03-29T02:24:32.302Z,100.00
2019-03-29T02:27:03.256Z,100.00
2019-03-29T02:29:34.327Z,100.00
2019-03-29T02:32:05.390Z,100.00
2019-03-29T02:34:36.382Z,100.00
2019-03-29T02:37:07.450Z,100.00
2019-03-29T02:39:38.626Z,100.00
2019-03-29T02:42:09.590Z,100.00
2019-03-29T02:44:40.613Z,100.00
2019-03-29T02:47:11.716Z,100.00
2019-03-29T02:49:42.663Z,100.00
2019-03-29T02:52:13.767Z,100.00
2019-03-29T02:54:44.813Z,100.00
2019-03-29T02:57:16.064Z,100.00
2019-03-29T02:59:47.149Z,100.00
2019-03-29T03:02:18.119Z,100.00
2019-03-29T03:04:49.192Z,100.00
2019-03-29T03:07:20.122Z,100.00
2019-03-29T03:09:51.116Z,100.00
2019-03-29T03:12:22.282Z,100.00
2019-03-29T03:14:53.197Z,100.00
2019-03-29T03:17:24.157Z,100.00
2019-03-29T03:19:55.178Z,100.00
2019-03-29T03:22:26.223Z,100.00
2019-03-29T03:24:57.233Z,100.00
2019-03-29T03:27:28.268Z,100.00
2019-03-29T03:29:59.194Z,100.00
2019-03-29T03:32:30.191Z,100.00
2019-03-29T03:35:01.329Z,100.00
2019-03-29T03:37:32.293Z,100.00
2019-03-29T03:40:04.129Z,100.00
2019-03-29T03:42:35.133Z,100.00
2019-03-29T03:45:07.879Z,100.00
2019-03-29T03:47:39.956Z,100.00
2019-03-29T03:50:31.952Z,100.00
2019-03-29T03:53:02.992Z,100.00
2019-03-29T03:55:36.106Z,100.00
2019-03-29T03:58:07.874Z,100.00
2019-03-29T04:00:44.409Z,100.00
2019-03-29T04:03:15.559Z,100.00
2019-03-29T04:05:46.693Z,100.00
2019-03-29T04:08:21.316Z,100.00
2019-03-29T04:10:52.233Z,100.00
2019-03-29T04:13:23.352Z,100.00
2019-03-29T04:15:54.318Z,100.00
2019-03-29T04:18:25.265Z,100.00
2019-03-29T04:20:56.465Z,100.00
2019-03-29T04:23:27.507Z,100.00
2019-03-29T04:25:58.558Z,100.00
2019-03-29T04:28:29.492Z,100.00
2019-03-29T04:31:00.589Z,100.00
2019-03-29T04:33:31.520Z,100.00
2019-03-29T04:36:02.620Z,100.00
2019-03-29T04:38:33.592Z,100.00
2019-03-29T04:41:04.753Z,100.00
2019-03-29T04:43:35.869Z,100.00
2019-03-29T04:46:06.913Z,100.00
2019-03-29T04:48:37.917Z,100.00
2019-03-29T04:51:09.066Z,100.00
2019-03-29T04:53:40.112Z,100.00
2019-03-29T04:56:11.247Z,100.00
2019-03-29T04:58:42.215Z,100.00
2019-03-29T05:01:17.146Z,100.00
2019-03-29T05:03:46.241Z,100.00
2019-03-29T05:06:17.423Z,100.00
2019-03-29T05:08:48.467Z,100.00
2019-03-29T05:11:19.445Z,100.00
2019-03-29T05:13:50.583Z,100.00
2019-03-29T05:16:21.550Z,100.00
2019-03-29T05:18:52.470Z,100.00
2019-03-29T05:21:23.444Z,100.00
2019-03-29T05:23:54.443Z,100.00
2019-03-29T05:26:25.710Z,100.00
2019-03-29T05:28:56.834Z,100.00
2019-03-29T05:31:27.818Z,100.00
2019-03-29T05:33:58.780Z,100.00
2019-03-29T05:36:29.783Z,100.00
2019-03-29T05:39:00.767Z,100.00
2019-03-29T05:41:31.760Z,100.00
2019-03-29T05:44:04.321Z,100.00
2019-03-29T05:46:35.875Z,100.00
2019-03-29T05:49:06.863Z,100.00
2019-03-29T05:51:37.990Z,100.00
2019-03-29T05:54:09.092Z,100.00
2019-03-29T05:56:40.604Z,100.00
2019-03-29T05:59:13.186Z,100.00
2019-03-29T06:01:44.481Z,100.00
2019-03-29T06:04:18.097Z,100.00
2019-03-29T06:06:50.801Z,100.00
2019-03-29T06:09:21.859Z,100.00
2019-03-29T06:11:52.793Z,100.00
2019-03-29T06:14:23.938Z,100.00
2019-03-29T06:16:55.148Z,100.00
2019-03-29T06:19:26.293Z,100.00
2019-03-29T06:21:57.171Z,100.00
2019-03-29T06:24:28.161Z,99.52
2019-03-29T06:26:59.710Z,98.54
2019-03-29T06:29:30.707Z,98.25
2019-03-29T06:32:01.603Z,97.88
2019-03-29T06:34:32.541Z,96.92
2019-03-29T06:37:03.822Z,95.93
2019-03-29T06:39:34.895Z,93.90
2019-03-29T06:42:05.989Z,92.73
2019-03-29T06:44:36.991Z,90.78
2019-03-29T06:47:07.875Z,90.75
2019-03-29T06:49:38.857Z,90.09
2019-03-29T06:52:09.822Z,89.80
2019-03-29T06:54:40.964Z,88.90
2019-03-29T06:57:11.906Z,88.47
2019-03-29T06:59:42.790Z,87.43
2019-03-29T07:02:13.893Z,85.97
2019-03-29T07:04:44.723Z,84.66
2019-03-29T07:07:15.734Z,83.34
2019-03-29T07:09:46.705Z,81.48
2019-03-29T07:12:17.686Z,80.57
2019-03-29T07:14:48.627Z,80.16
2019-03-29T07:17:19.593Z,79.07
2019-03-29T07:19:50.889Z,78.10
2019-03-29T07:22:21.971Z,77.57
2019-03-29T07:24:53.299Z,76.03
2019-03-29T07:27:24.187Z,75.38
2019-03-29T07:29:55.209Z,73.62
2019-03-29T07:32:26.171Z,71.75
2019-03-29T07:34:57.321Z,70.39
2019-03-29T07:37:28.312Z,70.98
2019-03-29T07:39:59.172Z,70.83
2019-03-29T07:42:30.134Z,70.25
2019-03-29T07:45:01.037Z,70.10
2019-03-29T07:47:31.922Z,70.29
2019-03-29T07:50:02.937Z,67.76
2019-03-29T07:52:34.021Z,69.85
2019-03-29T07:55:06.922Z,69.65
2019-03-29T07:57:37.890Z,68.16
2019-03-29T08:00:09.337Z,66.33
2019-03-29T08:02:40.239Z,64.90
2019-03-29T08:05:11.310Z,64.47
2019-03-29T08:07:42.414Z,63.58
2019-03-29T08:10:24.039Z,62.11
2019-03-29T08:12:46.438Z,60.41
2019-03-29T08:15:17.378Z,60.68
2019-03-29T08:17:48.329Z,60.99
2019-03-29T08:20:43.912Z,59.83
2019-03-29T08:22:52.121Z,57.91
2019-03-29T08:25:23.402Z,56.46
2019-03-29T08:27:54.531Z,55.10
2019-03-29T08:30:25.483Z,55.44
2019-03-29T08:32:56.486Z,55.61
2019-03-29T08:35:27.452Z,54.39
2019-03-29T08:37:58.476Z,52.46
2019-03-29T08:40:29.550Z,51.36
2019-03-29T08:43:00.644Z,50.52
2019-03-29T08:45:31.618Z,51.55
2019-03-29T08:48:02.556Z,54.64
2019-03-29T08:50:33.625Z,55.77
2019-03-29T08:53:04.892Z,56.31
2019-03-29T08:55:45.758Z,55.69
2019-03-29T08:58:08.660Z,53.45
2019-03-29T09:00:39.702Z,52.54
2019-03-29T09:03:10.761Z,52.67
2019-03-29T09:05:42.117Z,51.69
2019-03-29T09:08:13.248Z,52.90
2019-03-29T09:10:44.330Z,54.49
2019-03-29T09:13:15.290Z,55.92
2019-03-29T09:15:46.352Z,55.62
2019-03-29T09:18:17.423Z,53.80
2019-03-29T09:20:48.554Z,51.04
2019-03-29T09:23:19.703Z,47.05
2019-03-29T09:25:50.740Z,47.02
2019-03-29T09:28:21.925Z,48.07
2019-03-29T09:30:56.222Z,48.75
2019-03-29T09:33:25.626Z,46.26
2019-03-29T09:35:56.648Z,44.54
2019-03-29T09:38:27.800Z,46.32
2019-03-29T09:40:59.372Z,46.05
2019-03-29T09:43:30.325Z,44.32
2019-03-29T09:46:03.319Z,42.07
2019-03-29T09:48:34.696Z,43.46
2019-03-29T09:51:06.070Z,42.44
2019-03-29T09:53:40.853Z,42.72
2019-03-29T09:56:10.022Z,43.57
2019-03-29T09:58:41.063Z,45.80
2019-03-29T10:01:12.068Z,45.36
2019-03-29T10:03:43.207Z,45.01
2019-03-29T10:06:15.411Z,47.01
2019-03-29T10:08:46.602Z,48.40
2019-03-29T10:11:17.455Z,48.74
2019-03-29T10:13:48.519Z,47.97
2019-03-29T10:16:19.578Z,45.93
2019-03-29T10:18:50.507Z,40.46
2019-03-29T10:21:21.663Z,38.47
2019-03-29T10:23:53.373Z,36.70
2019-03-29T10:26:24.332Z,36.47
2019-03-29T10:28:56.090Z,35.29
2019-03-29T10:31:32.400Z,35.50
2019-03-29T10:34:00.200Z,37.35
2019-03-29T10:36:31.159Z,37.48
2019-03-29T10:39:02.600Z,37.46
2019-03-29T10:41:34.463Z,36.26
2019-03-29T10:44:06.453Z,37.06
2019-03-29T10:46:37.467Z,36.28
2019-03-29T10:49:08.515Z,33.86
2019-03-29T10:51:39.663Z,35.71
2019-03-29T10:54:10.623Z,35.55
2019-03-29T10:56:41.815Z,33.66
2019-03-29T10:59:26.375Z,32.25
2019-03-29T11:01:45.507Z,34.91
2019-03-29T11:04:16.632Z,37.56
2019-03-29T11:06:47.671Z,41.74
2019-03-29T11:09:18.732Z,43.16
2019-03-29T11:11:49.734Z,44.14
2019-03-29T11:14:20.814Z,41.38
2019-03-29T11:16:51.806Z,44.31
2019-03-29T11:19:23.131Z,46.18
2019-03-29T11:21:54.368Z,44.63
2019-03-29T11:24:25.440Z,42.53
2019-03-29T11:26:56.496Z,37.86
2019-03-29T11:29:27.711Z,35.17
2019-03-29T11:31:58.678Z,40.04
2019-03-29T11:34:29.721Z,38.72
2019-03-29T11:37:00.938Z,36.61
2019-03-29T11:39:31.945Z,35.83
2019-03-29T11:42:03.582Z,35.89
2019-03-29T11:44:34.808Z,36.73
2019-03-29T11:47:06.262Z,35.96
2019-03-29T11:49:37.351Z,33.56
2019-03-29T11:52:08.543Z,32.36
2019-03-29T11:54:39.897Z,31.38
2019-03-29T11:57:10.825Z,30.12
2019-03-29T11:59:41.827Z,29.67
2019-03-29T12:02:12.796Z,28.16
2019-03-29T12:04:43.776Z,31.98
2019-03-29T12:07:14.814Z,33.72
2019-03-29T12:09:45.796Z,34.33
2019-03-29T12:12:16.670Z,35.14
2019-03-29T12:14:47.757Z,33.15
2019-03-29T12:17:18.822Z,31.14
2019-03-29T12:19:49.818Z,32.45
2019-03-29T12:22:20.854Z,32.35
2019-03-29T12:24:52.087Z,31.52
2019-03-29T12:27:23.323Z,31.18
2019-03-29T12:29:54.584Z,29.38
2019-03-29T12:32:25.723Z,28.00
2019-03-29T12:34:56.726Z,26.89
2019-03-29T12:37:28.345Z,28.34
2019-03-29T12:39:59.500Z,33.39
2019-03-29T12:42:33.945Z,31.92
2019-03-29T12:45:07.740Z,32.25
2019-03-29T12:47:38.689Z,30.03
2019-03-29T12:50:10.008Z,29.41
2019-03-29T12:52:41.022Z,30.35
2019-03-29T12:55:12.550Z,28.87
2019-03-29T12:57:44.018Z,28.19
2019-03-29T13:00:15.759Z,28.37
2019-03-29T13:02:46.842Z,30.03
2019-03-29T13:05:18.541Z,29.64
2019-03-29T13:07:52.907Z,28.07
2019-03-29T13:10:23.221Z,27.32
2019-03-29T13:12:54.299Z,28.60
2019-03-29T13:15:27.251Z,29.29
2019-03-29T13:17:58.317Z,30.29
2019-03-29T13:20:32.105Z,30.23
2019-03-29T13:23:03.171Z,31.26
2019-03-29T13:25:34.415Z,31.10
2019-03-29T13:28:05.602Z,29.25
2019-03-29T13:30:40.112Z,26.94
2019-03-29T13:33:13.295Z,26.69
2019-03-29T13:35:47.188Z,25.08
2019-03-29T13:38:20.441Z,26.86
2019-03-29T13:40:50.883Z,27.25
2019-03-29T13:43:21.906Z,27.15
2019-03-29T13:45:53.029Z,27.62
2019-03-29T13:48:24.125Z,28.79
2019-03-29T13:50:55.378Z,27.95
2019-03-29T13:53:26.421Z,27.75
2019-03-29T13:55:57.413Z,27.02
2019-03-29T13:58:28.403Z,26.91
2019-03-29T14:00:59.720Z,27.39
2019-03-29T14:03:31.449Z,26.69
2019-03-29T14:06:02.713Z,25.89
2019-03-29T14:08:33.833Z,25.89
2019-03-29T14:11:05.008Z,25.16
2019-03-29T14:13:36.216Z,24.14
2019-03-29T14:16:07.501Z,25.02
2019-03-29T14:18:38.676Z,25.70
2019-03-29T14:21:09.811Z,28.94
2019-03-29T14:23:40.951Z,28.94
2019-03-29T14:26:11.948Z,30.50
2019-03-29T14:28:43.017Z,31.32
2019-03-29T14:31:14.237Z,29.80
2019-03-29T14:33:45.519Z,29.23
2019-03-29T14:36:16.816Z,28.84
2019-03-29T14:38:48.491Z,27.53
2019-03-29T14:41:19.447Z,27.41
2019-03-29T14:43:52.309Z,26.73
2019-03-29T14:46:23.478Z,28.07
2019-03-29T14:48:54.597Z,26.78
2019-03-29T14:51:25.856Z,28.57
2019-03-29T14:53:57.219Z,30.06
2019-03-29T14:56:28.931Z,30.28
2019-03-29T14:58:59.970Z,30.16
2019-03-29T15:01:30.959Z,30.16
2019-03-29T15:04:02.066Z,29.29
2019-03-29T15:06:33.244Z,28.70
2019-03-29T15:09:06.501Z,27.65
2019-03-29T15:11:37.575Z,28.02
2019-03-29T15:14:09.053Z,28.56
2019-03-29T15:16:40.024Z,28.77
2019-03-29T15:19:10.964Z,27.94
2019-03-29T15:21:41.924Z,28.04
2019-03-29T15:24:12.917Z,29.16
2019-03-29T15:26:44.436Z,29.96
2019-03-29T15:29:15.848Z,30.35
2019-03-29T15:31:46.884Z,29.56
2019-03-29T15:34:20.586Z,29.34
2019-03-29T15:36:53.133Z,29.41
2019-03-29T15:39:24.145Z,30.31
2019-03-29T15:41:55.255Z,29.63
2019-03-29T15:44:27.790Z,29.74
2019-03-29T15:46:58.825Z,29.31
2019-03-29T15:49:29.877Z,28.98
2019-03-29T15:52:00.779Z,30.65
2019-03-29T15:54:32.487Z,32.57
2019-03-29T15:57:04.018Z,32.89
2019-03-29T15:59:35.048Z,32.96
2019-03-29T16:02:05.956Z,33.54
2019-03-29T16:04:37.015Z,33.85
2019-03-29T16:07:08.099Z,32.95
2019-03-29T16:09:39.442Z,32.07
2019-03-29T16:12:10.954Z,31.60
2019-03-29T16:14:42.057Z,31.24
2019-03-29T16:17:14.836Z,31.78
2019-03-29T16:19:46.836Z,32.63
2019-03-29T16:22:17.993Z,33.22
2019-03-29T16:24:49.061Z,33.76
2019-03-29T16:27:20.113Z,33.84
2019-03-29T16:29:51.124Z,33.86
2019-03-29T16:32:22.360Z,35.04
2019-03-29T16:34:53.354Z,35.52
2019-03-29T16:37:24.682Z,35.09
2019-03-29T16:39:55.627Z,34.45
2019-03-29T16:42:26.575Z,34.06
2019-03-29T16:44:57.793Z,34.32
2019-03-29T16:47:29.534Z,34.98
2019-03-29T16:50:01.468Z,35.22
2019-03-29T16:52:32.563Z,35.74
2019-03-29T16:55:14.311Z,36.22
2019-03-29T16:57:45.753Z,36.72
2019-03-29T17:00:20.002Z,37.26
2019-03-29T17:02:51.038Z,37.15
2019-03-29T17:05:22.184Z,37.72
2019-03-29T17:07:53.432Z,37.89
2019-03-29T17:10:24.756Z,38.72
2019-03-29T17:12:55.767Z,38.95
2019-03-29T17:15:26.907Z,39.54
2019-03-29T17:17:57.922Z,39.73
2019-03-29T17:20:29.150Z,40.11
2019-03-29T17:23:01.897Z,40.84
2019-03-29T17:25:33.026Z,41.08
2019-03-29T17:28:04.122Z,41.49
2019-03-29T17:30:38.242Z,42.19
2019-03-29T17:33:09.196Z,42.60
2019-03-29T17:35:40.166Z,43.17
2019-03-29T17:41:03.142Z,44.14
2019-03-29T17:43:34.688Z,45.02
2019-03-29T17:46:16.143Z,45.51
2019-03-29T17:48:39.551Z,46.03
2019-03-29T17:51:10.572Z,46.41
2019-03-29T17:53:41.701Z,46.88
2019-03-29T17:56:12.690Z,47.49
2019-03-29T17:58:43.737Z,48.04
2019-03-29T18:01:14.679Z,48.15
2019-03-29T18:03:45.652Z,48.64
2019-03-29T18:06:16.730Z,49.19
2019-03-29T18:08:47.682Z,49.47
2019-03-29T18:11:18.801Z,49.84
2019-03-29T18:13:50.038Z,50.18
2019-03-29T18:16:30.651Z,50.42
2019-03-29T18:18:53.904Z,51.39
2019-03-29T18:21:25.035Z,51.55
2019-03-29T18:23:56.131Z,51.54
2019-03-29T18:26:27.100Z,52.15
2019-03-29T18:28:58.260Z,52.81
2019-03-29T18:31:29.251Z,53.80
2019-03-29T18:34:00.893Z,53.44
2019-03-29T18:36:32.301Z,53.72
2019-03-29T18:39:04.530Z,54.04
2019-03-29T18:41:35.609Z,54.52
2019-03-29T18:44:06.613Z,55.58
2019-03-29T18:46:44.490Z,55.50
2019-03-29T18:49:10.585Z,56.25
2019-03-29T18:51:41.642Z,57.11
2019-03-29T18:54:12.623Z,56.47
2019-03-29T18:56:43.578Z,57.69
2019-03-29T18:59:14.612Z,57.50
2019-03-29T19:01:45.766Z,58.22
2019-03-29T19:04:16.764Z,58.21
2019-03-29T19:06:48.229Z,57.92
2019-03-29T19:09:19.412Z,58.16
2019-03-29T19:11:50.571Z,57.73
2019-03-29T19:14:21.629Z,58.07
2019-03-29T19:16:58.836Z,58.65
2019-03-29T19:19:25.165Z,59.37
2019-03-29T19:21:56.272Z,59.89
2019-03-29T19:24:28.287Z,60.05
2019-03-29T19:26:59.303Z,59.66
2019-03-29T19:29:30.224Z,60.08
2019-03-29T19:32:01.216Z,61.47
2019-03-29T19:34:32.175Z,61.62
2019-03-29T19:37:03.304Z,61.83
2019-03-29T19:39:34.339Z,62.29
2019-03-29T19:42:05.376Z,63.46
2019-03-29T19:44:36.357Z,63.42
2019-03-29T19:47:13.234Z,63.76
2019-03-29T19:49:40.030Z,64.33
2019-03-29T19:52:11.081Z,64.35
2019-03-29T19:54:42.199Z,63.81
2019-03-29T19:57:13.391Z,64.80
2019-03-29T19:59:47.930Z,65.30
2019-03-29T20:02:17.339Z,65.34
2019-03-29T20:04:48.413Z,66.42
2019-03-29T20:07:20.440Z,67.56
2019-03-29T20:09:51.691Z,67.90
2019-03-29T20:12:25.190Z,68.88
2019-03-29T20:14:55.280Z,69.34
2019-03-29T20:17:27.597Z,69.22
2019-03-29T20:19:58.948Z,70.04
2019-03-29T20:22:29.871Z,70.20
2019-03-29T20:25:01.061Z,70.91
2019-03-29T20:27:32.215Z,70.74
2019-03-29T20:30:12.223Z,71.15
2019-03-29T20:32:43.154Z,70.95
2019-03-29T20:35:14.400Z,71.31
2019-03-29T20:37:45.508Z,72.39
2019-03-29T20:40:16.544Z,72.93
2019-03-29T20:42:47.662Z,73.06
2019-03-29T20:45:18.827Z,73.31
2019-03-29T20:47:51.991Z,73.56
2019-03-29T20:50:23.114Z,74.42
2019-03-29T20:52:54.254Z,75.42
2019-03-29T20:55:25.705Z,75.18
2019-03-29T20:57:56.903Z,76.21
2019-03-29T21:00:27.870Z,75.87
2019-03-29T21:02:59.241Z,76.12
2019-03-29T21:05:30.318Z,76.38
2019-03-29T21:08:05.457Z,77.10
2019-03-29T21:10:36.424Z,77.52
2019-03-29T21:13:09.569Z,78.09
2019-03-29T21:15:42.442Z,78.65
2019-03-29T21:18:17.310Z,78.41
2019-03-29T21:20:47.544Z,78.94
2019-03-29T21:23:18.473Z,79.17
2019-03-29T21:25:49.440Z,80.14
2019-03-29T21:28:20.341Z,80.32
2019-03-29T21:30:51.299Z,80.56
2019-03-29T21:33:22.237Z,81.03
2019-03-29T21:35:53.313Z,81.99
2019-03-29T21:38:25.316Z,81.68
2019-03-29T21:40:56.390Z,81.74
2019-03-29T21:43:27.346Z,82.19
2019-03-29T21:45:58.444Z,82.72
2019-03-29T21:48:29.623Z,83.34
2019-03-29T21:51:00.606Z,83.90
2019-03-29T21:53:31.633Z,84.35
2019-03-29T21:56:03.914Z,84.01
2019-03-29T21:58:36.681Z,83.11
2019-03-29T22:01:08.444Z,83.84
2019-03-29T22:03:39.462Z,84.95
2019-03-29T22:06:10.526Z,85.72
2019-03-29T22:08:41.500Z,85.28
2019-03-29T22:11:12.463Z,85.54
2019-03-29T22:13:43.457Z,85.58
2019-03-29T22:16:14.597Z,85.25
2019-03-29T22:18:45.693Z,85.22
2019-03-29T22:21:16.713Z,85.02
2019-03-29T22:23:47.709Z,85.39
2019-03-29T22:26:18.751Z,85.75
2019-03-29T22:28:51.367Z,86.37
2019-03-29T22:31:23.756Z,86.68
2019-03-29T22:33:57.033Z,87.45
2019-03-29T22:36:28.082Z,87.54
2019-03-29T22:38:58.945Z,87.90
2019-03-29T22:41:29.911Z,88.89
2019-03-29T22:44:00.910Z,89.25
2019-03-29T22:46:31.865Z,90.05
2019-03-29T22:49:02.771Z,89.52
2019-03-29T22:51:33.783Z,89.88
2019-03-29T22:54:04.815Z,90.83
2019-03-29T22:56:35.853Z,91.08
2019-03-29T22:59:06.889Z,91.57
2019-03-29T23:01:40.917Z,91.36
2019-03-29T23:04:11.953Z,91.70
2019-03-29T23:06:43.005Z,91.30
2019-03-29T23:09:14.036Z,91.23
2019-03-29T23:11:44.916Z,91.42
2019-03-29T23:14:15.803Z,91.44
2019-03-29T23:16:46.757Z,92.49
2019-03-29T23:19:17.786Z,92.83
2019-03-29T23:21:48.671Z,93.17
2019-03-29T23:24:19.567Z,95.01
2019-03-29T23:26:50.552Z,95.96
2019-03-29T23:29:21.649Z,96.37
2019-03-29T23:31:52.627Z,96.53
2019-03-29T23:34:23.729Z,96.97
2019-03-29T23:36:54.727Z,97.35
2019-03-29T23:39:25.816Z,97.52
2019-03-29T23:41:56.864Z,97.28
2019-03-29T23:44:27.854Z,97.23
2019-03-29T23:46:58.980Z,96.95
2019-03-29T23:49:30.119Z,96.96
2019-03-29T23:52:01.125Z,97.41
2019-03-29T23:54:32.068Z,97.76
2019-03-29T23:57:03.137Z,98.14
2019-03-29T23:59:34.039Z,98.36
